sensor_id;sensor_type;location;lat;lon;timestamp;pressure;altitude;pressure_sealevel;temperature;humidity
79142;BME280;68550;-26.480;29.234;2024-01-15T00:00:55;84168.37;;;28.20;36.68
79142;BME280;68550;-26.480;29.234;2024-01-15T00:03:20;84167.93;;;28.13;36.71
79142;BME280;68550;-26.480;29.234;2024-01-15T00:05:46;84166.38;;;28.15;36.71
79142;BME280;68550;-26.480;29.234;2024-01-15T00:08:11;84167.69;;;28.20;36.62
79142;BME280;68550;-26.480;29.234;2024-01-15T00:10:36;84167.26;;;28.20;36.57
79142;BME280;68550;-26.480;29.234;2024-01-15T00:13:01;84165.59;;;28.19;36.59
79142;BME280;68550;-26.480;29.234;2024-01-15T00:15:26;84165.97;;;28.13;36.64
79142;BME280;68550;-26.480;29.234;2024-01-15T00:17:52;84170.45;;;28.20;36.57
79142;BME280;68550;-26.480;29.234;2024-01-15T00:20:17;84174.00;;;28.25;36.47
79142;BME280;68550;-26.480;29.234;2024-01-15T00:22:42;84175.41;;;28.00;36.72
79142;BME280;68550;-26.480;29.234;2024-01-15T00:25:09;84169.93;;;28.06;36.69
79142;BME280;68550;-26.480;29.234;2024-01-15T00:27:33;84167.69;;;27.97;36.78
79142;BME280;68550;-26.480;29.234;2024-01-15T00:29:58;84169.47;;;27.98;36.76
79142;BME280;68550;-26.480;29.234;2024-01-15T00:32:23;84165.91;;;27.86;36.89
79142;BME280;68550;-26.480;29.234;2024-01-15T00:34:49;84161.22;;;27.95;36.77
79142;BME280;68550;-26.480;29.234;2024-01-15T00:37:16;84162.08;;;27.84;36.89
79142;BME280;68550;-26.480;29.234;2024-01-15T00:39:39;84161.57;;;27.85;36.88
79142;BME280;68550;-26.480;29.234;2024-01-15T00:42:05;84159.73;;;27.83;36.88
79142;BME280;68550;-26.480;29.234;2024-01-15T00:44:30;84159.44;;;27.71;36.97
79142;BME280;68550;-26.480;29.234;2024-01-15T00:47:02;84161.67;;;27.74;36.96
79142;BME280;68550;-26.480;29.234;2024-01-15T00:49:20;84160.97;;;27.73;36.94
79142;BME280;68550;-26.480;29.234;2024-01-15T00:51:47;84158.30;;;27.76;36.91
79142;BME280;68550;-26.480;29.234;2024-01-15T00:54:11;84157.51;;;27.94;37.00
79142;BME280;68550;-26.480;29.234;2024-01-15T00:56:36;84157.17;;;27.70;37.00
79142;BME280;68550;-26.480;29.234;2024-01-15T00:59:02;84150.37;;;27.81;36.82
79142;BME280;68550;-26.480;29.234;2024-01-15T01:01:27;84147.69;;;27.88;36.70
79142;BME280;68550;-26.480;29.234;2024-01-15T01:03:56;84150.27;;;27.99;36.56
79142;BME280;68550;-26.480;29.234;2024-01-15T01:06:17;84150.29;;;28.06;36.45
79142;BME280;68550;-26.480;29.234;2024-01-15T01:08:42;84150.42;;;27.96;36.55
79142;BME280;68550;-26.480;29.234;2024-01-15T01:11:08;84151.62;;;27.76;36.50
79142;BME280;68550;-26.480;29.234;2024-01-15T01:13:34;84147.01;;;27.82;36.41
79142;BME280;68550;-26.480;29.234;2024-01-15T01:15:59;84147.98;;;27.95;36.53
79142;BME280;68550;-26.480;29.234;2024-01-15T01:18:25;84143.34;;;27.94;36.52
79142;BME280;68550;-26.480;29.234;2024-01-15T01:20:52;84140.21;;;28.00;36.45
79142;BME280;68550;-26.480;29.234;2024-01-15T01:23:16;84137.71;;;28.01;36.43
79142;BME280;68550;-26.480;29.234;2024-01-15T01:25:41;84131.76;;;27.88;36.54
79142;BME280;68550;-26.480;29.234;2024-01-15T01:28:08;84130.26;;;27.81;36.62
79142;BME280;68550;-26.480;29.234;2024-01-15T01:30:31;84125.20;;;27.77;36.62
79142;BME280;68550;-26.480;29.234;2024-01-15T01:32:57;84126.53;;;27.66;36.71
79142;BME280;68550;-26.480;29.234;2024-01-15T01:35:22;84123.91;;;27.74;36.63
79142;BME280;68550;-26.480;29.234;2024-01-15T01:37:47;84121.82;;;27.66;36.71
79142;BME280;68550;-26.480;29.234;2024-01-15T01:40:14;84119.41;;;27.80;36.84
79142;BME280;68550;-26.480;29.234;2024-01-15T01:42:37;84119.89;;;27.65;36.73
79142;BME280;68550;-26.480;29.234;2024-01-15T01:45:03;84114.98;;;27.56;36.81
79142;BME280;68550;-26.480;29.234;2024-01-15T01:47:39;84115.34;;;27.56;36.76
79142;BME280;68550;-26.480;29.234;2024-01-15T01:49:53;84119.46;;;27.54;36.78
79142;BME280;68550;-26.480;29.234;2024-01-15T01:52:19;84120.72;;;27.54;36.78
79142;BME280;68550;-26.480;29.234;2024-01-15T01:54:43;84120.58;;;27.45;36.87
79142;BME280;68550;-26.480;29.234;2024-01-15T01:57:09;84126.02;;;27.51;36.79
79142;BME280;68550;-26.480;29.234;2024-01-15T01:59:35;84127.80;;;27.82;36.66
79142;BME280;68550;-26.480;29.234;2024-01-15T02:02:00;84131.20;;;27.96;36.43
79142;BME280;68550;-26.480;29.234;2024-01-15T02:04:25;84130.21;;;28.03;36.35
79142;BME280;68550;-26.480;29.234;2024-01-15T02:06:58;84126.56;;;27.78;36.30
79142;BME280;68550;-26.480;29.234;2024-01-15T02:09:16;84129.24;;;27.78;36.31
79142;BME280;68550;-26.480;29.234;2024-01-15T02:11:41;84131.53;;;27.74;36.29
79142;BME280;68550;-26.480;29.234;2024-01-15T02:14:06;84132.51;;;28.31;36.18
79142;BME280;68550;-26.480;29.234;2024-01-15T02:16:32;84133.09;;;27.78;36.22
79142;BME280;68550;-26.480;29.234;2024-01-15T02:18:57;84135.86;;;27.76;36.22
79142;BME280;68550;-26.480;29.234;2024-01-15T02:21:24;84137.00;;;28.37;36.05
79142;BME280;68550;-26.480;29.234;2024-01-15T02:23:48;84141.86;;;27.87;36.04
79142;BME280;68550;-26.480;29.234;2024-01-15T02:26:14;84146.21;;;28.26;36.12
79142;BME280;68550;-26.480;29.234;2024-01-15T02:28:39;84152.31;;;27.90;36.33
79142;BME280;68550;-26.480;29.234;2024-01-15T02:31:04;84156.25;;;27.59;36.37
79142;BME280;68550;-26.480;29.234;2024-01-15T02:33:30;84160.72;;;27.38;36.63
79142;BME280;68550;-26.480;29.234;2024-01-15T02:35:55;84161.55;;;27.64;36.58
79142;BME280;68550;-26.480;29.234;2024-01-15T02:38:20;84165.91;;;27.62;36.59
79142;BME280;68550;-26.480;29.234;2024-01-15T02:40:46;84169.81;;;27.63;36.56
79142;BME280;68550;-26.480;29.234;2024-01-15T02:43:12;84173.37;;;27.64;36.54
79142;BME280;68550;-26.480;29.234;2024-01-15T02:45:39;84175.75;;;27.39;36.54
79142;BME280;68550;-26.480;29.234;2024-01-15T02:48:02;84176.31;;;27.90;36.48
79142;BME280;68550;-26.480;29.234;2024-01-15T02:50:27;84182.60;;;27.39;36.51
79142;BME280;68550;-26.480;29.234;2024-01-15T02:52:53;84186.37;;;27.41;36.50
79142;BME280;68550;-26.480;29.234;2024-01-15T02:55:19;84193.08;;;27.33;36.56
79142;BME280;68550;-26.480;29.234;2024-01-15T02:57:46;84196.23;;;27.65;36.48
79142;BME280;68550;-26.480;29.234;2024-01-15T03:00:10;84200.32;;;27.66;36.42
79142;BME280;68550;-26.480;29.234;2024-01-15T03:04:29;84209.27;;;26.26;38.72
79142;BME280;68550;-26.480;29.234;2024-01-15T03:06:54;84210.06;;;26.47;37.88
79142;BME280;68550;-26.480;29.234;2024-01-15T03:09:20;84208.56;;;27.02;37.47
79142;BME280;68550;-26.480;29.234;2024-01-15T03:11:45;84209.17;;;27.31;37.10
79142;BME280;68550;-26.480;29.234;2024-01-15T03:14:10;84205.85;;;27.50;36.83
79142;BME280;68550;-26.480;29.234;2024-01-15T03:19:01;84206.58;;;27.56;36.40
79142;BME280;68550;-26.480;29.234;2024-01-15T03:21:26;84208.64;;;27.43;36.25
79142;BME280;68550;-26.480;29.234;2024-01-15T03:28:56;84205.03;;;27.50;36.09
79142;BME280;68550;-26.480;29.234;2024-01-15T03:31:13;84202.46;;;27.44;36.20
79142;BME280;68550;-26.480;29.234;2024-01-15T03:33:35;84202.15;;;27.92;36.17
79142;BME280;68550;-26.480;29.234;2024-01-15T03:35:59;84200.72;;;27.44;36.20
79142;BME280;68550;-26.480;29.234;2024-01-15T03:38:26;84201.09;;;27.38;36.23
79142;BME280;68550;-26.480;29.234;2024-01-15T03:40:50;84201.77;;;27.63;36.22
79142;BME280;68550;-26.480;29.234;2024-01-15T03:43:15;84201.91;;;27.60;36.26
79142;BME280;68550;-26.480;29.234;2024-01-15T03:45:41;84204.41;;;27.60;36.23
79142;BME280;68550;-26.480;29.234;2024-01-15T03:48:07;84206.92;;;27.25;36.37
79142;BME280;68550;-26.480;29.234;2024-01-15T03:50:32;84207.73;;;27.67;36.45
79142;BME280;68550;-26.480;29.234;2024-01-15T03:52:58;84211.07;;;27.42;36.47
79142;BME280;68550;-26.480;29.234;2024-01-15T03:55:23;84212.01;;;27.40;36.49
79142;BME280;68550;-26.480;29.234;2024-01-15T03:57:54;84214.21;;;27.63;36.49
79142;BME280;68550;-26.480;29.234;2024-01-15T04:00:15;84219.88;;;27.56;36.58
79142;BME280;68550;-26.480;29.234;2024-01-15T04:05:04;84225.18;;;27.15;36.47
79142;BME280;68550;-26.480;29.234;2024-01-15T04:07:32;84223.20;;;27.15;36.47
79142;BME280;68550;-26.480;29.234;2024-01-15T04:09:55;84227.55;;;27.10;36.53
79142;BME280;68550;-26.480;29.234;2024-01-15T04:14:55;84235.21;;;27.66;36.41
79142;BME280;68550;-26.480;29.234;2024-01-15T04:17:13;84232.98;;;27.77;36.32
79142;BME280;68550;-26.480;29.234;2024-01-15T04:19:36;84230.83;;;27.30;36.30
79142;BME280;68550;-26.480;29.234;2024-01-15T04:22:01;84237.34;;;27.64;36.46
79142;BME280;68550;-26.480;29.234;2024-01-15T04:24:26;84238.70;;;27.52;36.34
79142;BME280;68550;-26.480;29.234;2024-01-15T04:26:52;84237.86;;;27.69;36.43
79142;BME280;68550;-26.480;29.234;2024-01-15T04:29:31;84236.15;;;27.25;36.41
79142;BME280;68550;-26.480;29.234;2024-01-15T04:31:58;84228.61;;;27.53;36.33
79142;BME280;68550;-26.480;29.234;2024-01-15T04:34:09;84229.79;;;27.52;36.34
79142;BME280;68550;-26.480;29.234;2024-01-15T04:36:39;84231.56;;;27.51;36.35
79142;BME280;68550;-26.480;29.234;2024-01-15T04:43:50;84229.26;;;27.51;36.40
79142;BME280;68550;-26.480;29.234;2024-01-15T04:46:15;84227.11;;;27.26;36.42
79142;BME280;68550;-26.480;29.234;2024-01-15T04:48:41;84224.14;;;27.49;36.50
79142;BME280;68550;-26.480;29.234;2024-01-15T04:53:32;84226.53;;;27.22;36.56
79142;BME280;68550;-26.480;29.234;2024-01-15T04:56:20;84226.75;;;27.48;36.60
79142;BME280;68550;-26.480;29.234;2024-01-15T04:58:24;84227.52;;;27.15;36.64
79142;BME280;68550;-26.480;29.234;2024-01-15T05:05:34;84226.68;;;27.43;37.04
79142;BME280;68550;-26.480;29.234;2024-01-15T05:08:00;84231.19;;;27.08;36.86
79142;BME280;68550;-26.480;29.234;2024-01-15T05:10:30;84237.80;;;27.56;36.82
79142;BME280;68550;-26.480;29.234;2024-01-15T05:12:50;84243.56;;;27.39;36.85
79142;BME280;68550;-26.480;29.234;2024-01-15T05:15:15;84251.03;;;27.24;36.63
79142;BME280;68550;-26.480;29.234;2024-01-15T05:17:41;84261.85;;;27.44;36.78
79142;BME280;68550;-26.480;29.234;2024-01-15T05:20:07;84265.75;;;27.49;36.72
79142;BME280;68550;-26.480;29.234;2024-01-15T05:22:34;84265.13;;;27.49;36.76
79142;BME280;68550;-26.480;29.234;2024-01-15T05:24:57;84264.16;;;27.31;36.66
79142;BME280;68550;-26.480;29.234;2024-01-15T05:27:22;84265.34;;;27.73;36.89
79142;BME280;68550;-26.480;29.234;2024-01-15T05:29:48;84269.27;;;27.33;36.98
79142;BME280;68550;-26.480;29.234;2024-01-15T05:32:13;84270.99;;;27.81;36.86
79142;BME280;68550;-26.480;29.234;2024-01-15T05:34:39;84271.09;;;27.82;37.00
79142;BME280;68550;-26.480;29.234;2024-01-15T05:37:06;84267.63;;;27.29;37.16
79142;BME280;68550;-26.480;29.234;2024-01-15T05:39:30;84266.97;;;27.82;37.13
79142;BME280;68550;-26.480;29.234;2024-01-15T05:41:55;84267.65;;;27.26;37.82
79142;BME280;68550;-26.480;29.234;2024-01-15T05:44:21;84266.35;;;27.80;37.66
79142;BME280;68550;-26.480;29.234;2024-01-15T05:46:46;84266.17;;;27.33;37.62
79142;BME280;68550;-26.480;29.234;2024-01-15T05:49:13;84267.43;;;27.50;37.69
79142;BME280;68550;-26.480;29.234;2024-01-15T05:51:37;84265.66;;;27.78;37.58
79142;BME280;68550;-26.480;29.234;2024-01-15T05:54:02;84262.44;;;27.68;37.75
79142;BME280;68550;-26.480;29.234;2024-01-15T05:56:27;84260.69;;;27.64;37.78
79142;BME280;68550;-26.480;29.234;2024-01-15T05:58:53;84261.21;;;27.71;37.71
79142;BME280;68550;-26.480;29.234;2024-01-15T06:01:20;84261.12;;;27.42;37.76
79142;BME280;68550;-26.480;29.234;2024-01-15T06:03:43;84262.74;;;27.43;37.93
79142;BME280;68550;-26.480;29.234;2024-01-15T06:06:10;84263.32;;;27.41;38.03
79142;BME280;68550;-26.480;29.234;2024-01-15T06:08:34;84264.58;;;27.67;37.98
79142;BME280;68550;-26.480;29.234;2024-01-15T06:10:59;84266.10;;;27.70;37.60
79142;BME280;68550;-26.480;29.234;2024-01-15T06:13:28;84268.12;;;27.67;37.42
79142;BME280;68550;-26.480;29.234;2024-01-15T06:15:50;84272.43;;;27.39;37.60
79142;BME280;68550;-26.480;29.234;2024-01-15T06:18:15;84274.79;;;27.39;37.52
79142;BME280;68550;-26.480;29.234;2024-01-15T06:20:40;84271.49;;;27.83;36.99
79142;BME280;68550;-26.480;29.234;2024-01-15T06:23:05;84273.67;;;27.80;37.22
79142;BME280;68550;-26.480;29.234;2024-01-15T06:25:30;84269.44;;;27.52;37.37
79142;BME280;68550;-26.480;29.234;2024-01-15T06:27:58;84271.53;;;27.88;37.25
79142;BME280;68550;-26.480;29.234;2024-01-15T06:30:21;84273.52;;;27.89;36.93
79142;BME280;68550;-26.480;29.234;2024-01-15T06:32:47;84274.03;;;27.71;37.40
79142;BME280;68550;-26.480;29.234;2024-01-15T06:35:12;84273.16;;;27.78;37.31
79142;BME280;68550;-26.480;29.234;2024-01-15T06:37:37;84273.42;;;27.78;37.45
79142;BME280;68550;-26.480;29.234;2024-01-15T06:40:06;84274.54;;;27.60;37.68
79142;BME280;68550;-26.480;29.234;2024-01-15T06:42:28;84268.72;;;27.78;37.32
79142;BME280;68550;-26.480;29.234;2024-01-15T06:44:53;84268.71;;;27.52;37.61
79142;BME280;68550;-26.480;29.234;2024-01-15T06:47:21;84268.70;;;27.94;37.34
79142;BME280;68550;-26.480;29.234;2024-01-15T06:49:43;84267.86;;;27.63;37.43
79142;BME280;68550;-26.480;29.234;2024-01-15T06:52:09;84271.70;;;27.88;37.25
79142;BME280;68550;-26.480;29.234;2024-01-15T06:54:34;84270.47;;;28.05;37.02
79142;BME280;68550;-26.480;29.234;2024-01-15T06:56:59;84272.13;;;27.48;37.39
79142;BME280;68550;-26.480;29.234;2024-01-15T06:59:25;84273.64;;;27.63;37.24
79142;BME280;68550;-26.480;29.234;2024-01-15T07:01:49;84267.12;;;27.66;37.16
79142;BME280;68550;-26.480;29.234;2024-01-15T07:04:17;84270.56;;;27.61;37.26
79142;BME280;68550;-26.480;29.234;2024-01-15T07:06:40;84268.62;;;27.67;37.33
79142;BME280;68550;-26.480;29.234;2024-01-15T07:09:05;84268.40;;;27.88;37.13
79142;BME280;68550;-26.480;29.234;2024-01-15T07:11:31;84264.33;;;27.99;37.14
79142;BME280;68550;-26.480;29.234;2024-01-15T07:13:56;84264.05;;;28.21;37.05
79142;BME280;68550;-26.480;29.234;2024-01-15T07:16:24;84263.61;;;28.42;37.17
79142;BME280;68550;-26.480;29.234;2024-01-15T07:18:47;84260.91;;;27.91;37.28
79142;BME280;68550;-26.480;29.234;2024-01-15T07:21:12;84260.89;;;28.10;36.99
79142;BME280;68550;-26.480;29.234;2024-01-15T07:23:38;84261.74;;;28.02;37.14
79142;BME280;68550;-26.480;29.234;2024-01-15T07:26:04;84260.42;;;28.05;37.08
79142;BME280;68550;-26.480;29.234;2024-01-15T07:28:30;84258.81;;;27.95;37.30
79142;BME280;68550;-26.480;29.234;2024-01-15T07:30:54;84261.52;;;28.06;37.17
79142;BME280;68550;-26.480;29.234;2024-01-15T07:33:19;84260.39;;;28.36;37.08
79142;BME280;68550;-26.480;29.234;2024-01-15T07:35:45;84253.74;;;27.84;37.40
79142;BME280;68550;-26.480;29.234;2024-01-15T07:38:10;84254.69;;;27.76;37.71
79142;BME280;68550;-26.480;29.234;2024-01-15T07:40:39;84256.11;;;28.00;37.79
79142;BME280;68550;-26.480;29.234;2024-01-15T07:43:00;84255.94;;;27.77;37.77
79142;BME280;68550;-26.480;29.234;2024-01-15T07:45:26;84254.61;;;27.93;37.63
79142;BME280;68550;-26.480;29.234;2024-01-15T07:47:51;84254.27;;;27.96;37.52
79142;BME280;68550;-26.480;29.234;2024-01-15T07:50:17;84252.61;;;27.81;37.70
79142;BME280;68550;-26.480;29.234;2024-01-15T07:52:46;84250.59;;;27.72;37.77
79142;BME280;68550;-26.480;29.234;2024-01-15T07:55:07;84248.75;;;27.71;37.78
79142;BME280;68550;-26.480;29.234;2024-01-15T07:57:33;84247.52;;;27.73;37.76
79142;BME280;68550;-26.480;29.234;2024-01-15T07:59:58;84248.94;;;27.74;37.77
79142;BME280;68550;-26.480;29.234;2024-01-15T08:02:23;84246.14;;;27.85;37.65
79142;BME280;68550;-26.480;29.234;2024-01-15T08:04:48;84248.44;;;27.79;37.73
79142;BME280;68550;-26.480;29.234;2024-01-15T08:07:16;84247.63;;;27.90;37.72
79142;BME280;68550;-26.480;29.234;2024-01-15T08:09:40;84249.78;;;28.19;37.60
79142;BME280;68550;-26.480;29.234;2024-01-15T08:12:05;84246.62;;;28.14;37.72
79142;BME280;68550;-26.480;29.234;2024-01-15T08:14:30;84244.63;;;28.04;37.65
79142;BME280;68550;-26.480;29.234;2024-01-15T08:16:55;84245.10;;;28.09;37.62
79142;BME280;68550;-26.480;29.234;2024-01-15T08:19:22;84241.32;;;27.99;37.75
79142;BME280;68550;-26.480;29.234;2024-01-15T08:21:46;84238.95;;;28.25;37.48
79142;BME280;68550;-26.480;29.234;2024-01-15T08:24:11;84240.01;;;28.18;37.58
79142;BME280;68550;-26.480;29.234;2024-01-15T08:26:36;84236.19;;;28.19;37.63
79142;BME280;68550;-26.480;29.234;2024-01-15T08:29:02;84232.78;;;28.25;37.61
79142;BME280;68550;-26.480;29.234;2024-01-15T08:31:29;84229.97;;;28.25;37.67
79142;BME280;68550;-26.480;29.234;2024-01-15T08:33:52;84226.35;;;28.15;37.78
79142;BME280;68550;-26.480;29.234;2024-01-15T08:36:17;84230.05;;;28.32;37.61
79142;BME280;68550;-26.480;29.234;2024-01-15T08:38:43;84226.43;;;28.24;37.73
79142;BME280;68550;-26.480;29.234;2024-01-15T08:41:08;84228.19;;;28.18;37.87
79142;BME280;68550;-26.480;29.234;2024-01-15T08:43:34;84224.70;;;28.10;38.05
79142;BME280;68550;-26.480;29.234;2024-01-15T08:45:58;84223.79;;;28.04;38.14
79142;BME280;68550;-26.480;29.234;2024-01-15T08:48:24;84219.61;;;28.03;38.15
79142;BME280;68550;-26.480;29.234;2024-01-15T08:50:50;84220.31;;;28.12;38.11
79142;BME280;68550;-26.480;29.234;2024-01-15T08:53:15;84214.55;;;27.95;38.33
79142;BME280;68550;-26.480;29.234;2024-01-15T08:55:40;84213.91;;;27.98;38.33
79142;BME280;68550;-26.480;29.234;2024-01-15T08:58:07;84210.10;;;28.07;38.24
79142;BME280;68550;-26.480;29.234;2024-01-15T09:00:30;84208.21;;;28.11;38.26
79142;BME280;68550;-26.480;29.234;2024-01-15T09:02:56;84207.95;;;28.07;38.47
79142;BME280;68550;-26.480;29.234;2024-01-15T09:05:23;84209.04;;;28.30;38.12
79142;BME280;68550;-26.480;29.234;2024-01-15T09:07:47;84206.52;;;28.34;38.03
79142;BME280;68550;-26.480;29.234;2024-01-15T09:10:14;84208.62;;;28.42;37.98
79142;BME280;68550;-26.480;29.234;2024-01-15T09:12:37;84210.02;;;28.36;38.10
79142;BME280;68550;-26.480;29.234;2024-01-15T09:15:02;84207.67;;;28.36;38.12
79142;BME280;68550;-26.480;29.234;2024-01-15T09:17:28;84203.17;;;28.47;38.01
79142;BME280;68550;-26.480;29.234;2024-01-15T09:19:52;84202.65;;;28.45;38.08
79142;BME280;68550;-26.480;29.234;2024-01-15T09:22:20;84204.38;;;28.55;37.97
79142;BME280;68550;-26.480;29.234;2024-01-15T09:24:44;84204.72;;;28.60;37.95
79142;BME280;68550;-26.480;29.234;2024-01-15T09:27:08;84201.48;;;28.64;37.93
79142;BME280;68550;-26.480;29.234;2024-01-15T09:29:33;84198.96;;;28.56;38.10
79142;BME280;68550;-26.480;29.234;2024-01-15T09:31:59;84200.06;;;28.62;38.04
79142;BME280;68550;-26.480;29.234;2024-01-15T09:34:25;84196.77;;;28.48;38.24
79142;BME280;68550;-26.480;29.234;2024-01-15T09:36:50;84190.50;;;28.39;38.35
79142;BME280;68550;-26.480;29.234;2024-01-15T09:39:15;84187.26;;;28.45;38.31
79142;BME280;68550;-26.480;29.234;2024-01-15T09:41:40;84187.11;;;28.57;38.19
79142;BME280;68550;-26.480;29.234;2024-01-15T09:44:06;84181.12;;;28.29;38.53
79142;BME280;68550;-26.480;29.234;2024-01-15T09:46:33;84178.63;;;28.43;38.41
79142;BME280;68550;-26.480;29.234;2024-01-15T09:48:56;84171.92;;;28.52;38.34
79142;BME280;68550;-26.480;29.234;2024-01-15T09:51:22;84178.07;;;28.36;38.27
79142;BME280;68550;-26.480;29.234;2024-01-15T09:53:47;84170.86;;;28.39;38.56
79142;BME280;68550;-26.480;29.234;2024-01-15T09:56:12;84167.42;;;28.26;38.76
79142;BME280;68550;-26.480;29.234;2024-01-15T10:01:03;84166.36;;;28.58;38.46
79142;BME280;68550;-26.480;29.234;2024-01-15T10:03:28;84165.74;;;28.30;38.61
79142;BME280;68550;-26.480;29.234;2024-01-15T10:05:53;84163.66;;;28.69;38.45
79142;BME280;68550;-26.480;29.234;2024-01-15T10:08:18;84160.92;;;28.70;38.52
79142;BME280;68550;-26.480;29.234;2024-01-15T10:10:44;84156.98;;;28.71;38.55
79142;BME280;68550;-26.480;29.234;2024-01-15T10:13:09;84155.79;;;28.49;38.55
79142;BME280;68550;-26.480;29.234;2024-01-15T10:15:35;84159.76;;;28.75;38.61
79142;BME280;68550;-26.480;29.234;2024-01-15T10:18:00;84153.14;;;28.38;38.53
79142;BME280;68550;-26.480;29.234;2024-01-15T10:20:25;84149.75;;;28.54;38.64
79142;BME280;68550;-26.480;29.234;2024-01-15T10:22:51;84142.54;;;28.81;38.64
79142;BME280;68550;-26.480;29.234;2024-01-15T10:25:17;84144.60;;;28.80;38.68
79142;BME280;68550;-26.480;29.234;2024-01-15T10:27:41;84142.53;;;28.88;38.62
79142;BME280;68550;-26.480;29.234;2024-01-15T10:30:07;84137.67;;;28.51;38.79
79142;BME280;68550;-26.480;29.234;2024-01-15T10:32:31;84128.18;;;28.99;38.49
79142;BME280;68550;-26.480;29.234;2024-01-15T10:34:56;84128.73;;;29.01;38.46
79142;BME280;68550;-26.480;29.234;2024-01-15T10:37:24;84125.22;;;28.71;38.59
79142;BME280;68550;-26.480;29.234;2024-01-15T10:39:47;84121.92;;;29.01;38.56
79142;BME280;68550;-26.480;29.234;2024-01-15T10:42:13;84117.56;;;28.96;38.63
79142;BME280;68550;-26.480;29.234;2024-01-15T10:44:38;84114.56;;;28.86;38.80
79142;BME280;68550;-26.480;29.234;2024-01-15T10:47:04;84110.10;;;28.67;38.77
79142;BME280;68550;-26.480;29.234;2024-01-15T10:49:29;84106.23;;;28.75;38.66
79142;BME280;68550;-26.480;29.234;2024-01-15T10:51:55;84102.96;;;28.86;38.56
79142;BME280;68550;-26.480;29.234;2024-01-15T10:54:20;84100.08;;;28.73;38.73
79142;BME280;68550;-26.480;29.234;2024-01-15T10:56:50;84096.05;;;28.89;38.75
79142;BME280;68550;-26.480;29.234;2024-01-15T10:59:11;84092.12;;;28.64;38.91
79142;BME280;68550;-26.480;29.234;2024-01-15T11:03:46;84089.16;;;27.54;41.54
79142;BME280;68550;-26.480;29.234;2024-01-15T11:11:02;84085.93;;;28.48;39.34
79142;BME280;68550;-26.480;29.234;2024-01-15T11:15:59;84075.46;;;28.68;39.14
79142;BME280;68550;-26.480;29.234;2024-01-15T11:18:18;84076.85;;;28.62;39.33
79142;BME280;68550;-26.480;29.234;2024-01-15T11:23:08;84061.57;;;29.09;39.18
79142;BME280;68550;-26.480;29.234;2024-01-15T11:25:35;84056.63;;;28.66;39.20
79142;BME280;68550;-26.480;29.234;2024-01-15T11:27:59;84049.54;;;28.83;39.25
79142;BME280;68550;-26.480;29.234;2024-01-15T11:35:15;84047.11;;;28.86;39.30
79142;BME280;68550;-26.480;29.234;2024-01-15T11:40:06;84039.12;;;28.78;39.16
79142;BME280;68550;-26.480;29.234;2024-01-15T11:42:45;84041.29;;;28.80;39.14
79142;BME280;68550;-26.480;29.234;2024-01-15T11:57:08;83994.67;;;29.03;38.77
79142;BME280;68550;-26.480;29.234;2024-01-15T11:59:43;83997.29;;;29.31;38.68
79142;BME280;68550;-26.480;29.234;2024-01-15T12:04:21;83997.80;;;29.11;38.74
79142;BME280;68550;-26.480;29.234;2024-01-15T12:09:12;83982.81;;;29.09;38.73
79142;BME280;68550;-26.480;29.234;2024-01-15T12:11:37;83971.18;;;28.77;39.06
79142;BME280;68550;-26.480;29.234;2024-01-15T12:14:01;83965.94;;;29.09;39.10
79142;BME280;68550;-26.480;29.234;2024-01-15T12:16:26;83977.19;;;28.92;39.27
79142;BME280;68550;-26.480;29.234;2024-01-15T12:18:51;83981.25;;;28.90;39.34
79142;BME280;68550;-26.480;29.234;2024-01-15T12:23:42;83986.05;;;28.74;39.50
79142;BME280;68550;-26.480;29.234;2024-01-15T12:26:09;83998.10;;;28.93;39.41
79142;BME280;68550;-26.480;29.234;2024-01-15T12:33:23;83980.44;;;28.80;39.30
79142;BME280;68550;-26.480;29.234;2024-01-15T12:35:49;83964.56;;;28.77;39.42
79142;BME280;68550;-26.480;29.234;2024-01-15T12:38:19;83952.02;;;29.00;39.42
79142;BME280;68550;-26.480;29.234;2024-01-15T12:40:43;83950.66;;;28.81;39.30
79142;BME280;68550;-26.480;29.234;2024-01-15T12:43:06;83951.89;;;29.30;38.97
79142;BME280;68550;-26.480;29.234;2024-01-15T12:45:31;83957.47;;;29.09;38.92
79142;BME280;68550;-26.480;29.234;2024-01-15T12:48:06;83958.03;;;29.43;38.87
79142;BME280;68550;-26.480;29.234;2024-01-15T12:50:25;83963.54;;;29.40;38.89
79142;BME280;68550;-26.480;29.234;2024-01-15T12:52:45;83973.07;;;29.43;38.89
79142;BME280;68550;-26.480;29.234;2024-01-15T12:55:11;83980.25;;;29.21;38.88
79142;BME280;68550;-26.480;29.234;2024-01-15T12:58:06;83999.46;;;29.47;38.85
79142;BME280;68550;-26.480;29.234;2024-01-15T13:00:02;84003.71;;;29.14;38.87
79142;BME280;68550;-26.480;29.234;2024-01-15T13:02:39;83996.48;;;28.73;39.47
79142;BME280;68550;-26.480;29.234;2024-01-15T13:05:04;83999.12;;;29.25;38.87
79142;BME280;68550;-26.480;29.234;2024-01-15T13:07:28;84004.79;;;28.98;38.88
79142;BME280;68550;-26.480;29.234;2024-01-15T13:09:54;84009.12;;;28.89;38.58
79142;BME280;68550;-26.480;29.234;2024-01-15T13:12:19;84007.73;;;29.15;38.77
79142;BME280;68550;-26.480;29.234;2024-01-15T13:14:45;84020.80;;;28.75;38.55
79142;BME280;68550;-26.480;29.234;2024-01-15T13:17:10;84045.81;;;28.69;38.75
79142;BME280;68550;-26.480;29.234;2024-01-15T13:19:35;84055.98;;;28.74;38.73
79142;BME280;68550;-26.480;29.234;2024-01-15T13:22:01;84055.87;;;28.87;38.57
79142;BME280;68550;-26.480;29.234;2024-01-15T13:24:26;84048.52;;;28.67;38.58
79142;BME280;68550;-26.480;29.234;2024-01-15T13:26:55;84039.14;;;28.80;38.45
79142;BME280;68550;-26.480;29.234;2024-01-15T13:29:17;84036.66;;;28.41;38.33
79142;BME280;68550;-26.480;29.234;2024-01-15T13:31:42;84052.15;;;28.88;38.24
79142;BME280;68550;-26.480;29.234;2024-01-15T13:34:07;84055.16;;;28.33;38.52
79142;BME280;68550;-26.480;29.234;2024-01-15T13:36:33;84049.86;;;28.97;38.42
79142;BME280;68550;-26.480;29.234;2024-01-15T13:39:02;84042.27;;;28.90;38.29
79142;BME280;68550;-26.480;29.234;2024-01-15T13:41:23;84029.85;;;28.84;37.97